Time;durP1;ratioP1;P1;durP2;ratioP2;P2;SDS_P1;SDS_P2;PMS_P1;PMS_P2;Temp;Humidity;BMP_temperature;BMP_pressure;BME280_temperature;BME280_humidity;BME280_pressure;Samples;Min_cycle;Max_cycle;Signal;HPM_P1;HPM_P2
2021/12/10 00:01:01;;;;;;;17.30;7.22;;;2.70;99.90;;;;;;5054151;28;20063;-81
2021/12/10 00:03:29;;;;;;;21.17;7.78;;;2.70;99.90;;;;;;5054623;28;20025;-80
2021/12/10 00:06:00;;;;;;;18.90;8.50;;;2.80;99.90;;;;;;5053611;28;20454;-79
2021/12/10 00:08:30;;;;;;;18.80;8.25;;;2.90;99.90;;;;;;5053381;28;20037;-79
2021/12/10 00:11:00;;;;;;;23.02;8.88;;;2.90;99.90;;;;;;5053491;28;20547;-79
2021/12/10 00:13:27;;;;;;;26.83;9.45;;;2.90;99.90;;;;;;5053783;28;20063;-79
2021/12/10 00:15:55;;;;;;;25.90;10.10;;;3.00;99.90;;;;;;5054201;28;20384;-79
2021/12/10 00:18:24;;;;;;;23.17;9.65;;;3.10;99.90;;;;;;5053737;28;20431;-79
2021/12/10 00:20:57;;;;;;;17.00;9.10;;;3.10;99.90;;;;;;5053672;28;20021;-80
2021/12/10 00:23:22;;;;;;;18.08;9.65;;;3.20;99.90;;;;;;5054026;28;20033;-80
2021/12/10 00:25:51;;;;;;;20.30;9.80;;;3.20;99.90;;;;;;5055226;28;20427;-80
2021/12/10 00:28:23;;;;;;;25.60;9.38;;;3.30;99.90;;;;;;5053352;28;20047;-80
2021/12/10 00:31:16;;;;;;;20.73;10.13;;;3.30;99.90;;;;;;5054639;28;20154;-80
2021/12/10 00:33:47;;;;;;;21.63;10.10;;;3.30;99.90;;;;;;5053258;28;20029;-79
2021/12/10 00:36:13;;;;;;;20.55;9.63;;;3.30;99.90;;;;;;5054418;28;20029;-79
2021/12/10 00:38:40;;;;;;;23.15;10.80;;;3.30;99.90;;;;;;5073361;28;20031;-80
2021/12/10 00:41:07;;;;;;;19.63;10.00;;;3.30;99.90;;;;;;5056494;28;20469;-79
2021/12/10 00:43:34;;;;;;;19.33;10.23;;;3.10;99.90;;;;;;5054562;28;20029;-80
2021/12/10 00:45:59;;;;;;;24.50;11.05;;;3.20;99.90;;;;;;5054576;28;20028;-80
2021/12/10 00:48:25;;;;;;;24.02;10.60;;;3.20;99.90;;;;;;5070237;28;20040;-80
2021/12/10 00:50:54;;;;;;;21.90;10.43;;;3.20;99.90;;;;;;5057165;28;20025;-80
2021/12/10 00:53:20;;;;;;;17.42;10.32;;;3.20;99.90;;;;;;5070683;28;20022;-80
2021/12/10 00:55:46;;;;;;;21.83;11.75;;;3.20;99.90;;;;;;5054094;28;20021;-80
2021/12/10 00:58:12;;;;;;;32.67;11.18;;;3.10;99.90;;;;;;5054452;28;20108;-79
2021/12/10 01:00:52;;;;;;;15.65;10.38;;;3.00;99.90;;;;;;5054207;28;20104;-79
2021/12/10 01:03:26;;;;;;;17.50;10.80;;;3.00;99.90;;;;;;5052759;28;20492;-79
2021/12/10 01:05:56;;;;;;;23.42;10.30;;;2.90;99.90;;;;;;5054085;28;20064;-80
2021/12/10 01:08:22;;;;;;;24.90;11.40;;;2.90;99.90;;;;;;5053794;28;20075;-80
2021/12/10 01:10:53;;;;;;;21.92;9.23;;;2.90;99.90;;;;;;5054696;28;20037;-79
2021/12/10 01:13:27;;;;;;;21.02;11.40;;;2.90;99.90;;;;;;5053247;28;20025;-80
2021/12/10 01:24:05;;;;;;;17.80;10.93;;;2.90;99.90;;;;;;5057049;28;20126;-79
2021/12/10 01:29:08;;;;;;;29.17;10.15;;;2.90;99.90;;;;;;5054407;28;20033;-81
2021/12/10 01:31:35;;;;;;;19.63;9.55;;;3.00;99.90;;;;;;5053646;28;20021;-80
2021/12/10 01:34:09;;;;;;;18.13;9.07;;;2.90;99.90;;;;;;5052123;28;20056;-80
2021/12/10 01:36:35;;;;;;;19.67;9.32;;;2.90;99.90;;;;;;5052835;28;20032;-80
2021/12/10 01:39:05;;;;;;;18.10;8.93;;;2.90;99.90;;;;;;5052765;28;20025;-80
2021/12/10 01:41:35;;;;;;;20.43;8.83;;;2.90;99.90;;;;;;5053297;28;20025;-80
2021/12/10 01:44:11;;;;;;;12.82;8.40;;;2.90;99.90;;;;;;5053223;28;20037;-80
2021/12/10 01:46:39;;;;;;;15.07;8.15;;;3.00;99.90;;;;;;5054081;28;20039;-80
2021/12/10 01:49:06;;;;;;;21.30;8.50;;;3.00;99.90;;;;;;5053140;28;20103;-80
2021/12/10 01:51:35;;;;;;;17.40;7.88;;;3.00;99.90;;;;;;5054568;28;20024;-80
2021/12/10 01:54:10;;;;;;;15.30;7.90;;;2.90;99.90;;;;;;5057302;28;20029;-81
2021/12/10 01:56:38;;;;;;;24.67;9.05;;;3.00;99.90;;;;;;5056821;28;20492;-80
2021/12/10 01:59:07;;;;;;;15.25;7.80;;;3.00;99.90;;;;;;5060174;28;20025;-81
2021/12/10 02:01:40;;;;;;;20.73;7.07;;;2.90;99.90;;;;;;5055441;28;20033;-79
2021/12/10 02:04:07;;;;;;;18.83;7.65;;;2.90;99.90;;;;;;5055820;28;20032;-80
2021/12/10 02:06:34;;;;;;;21.50;7.85;;;3.00;99.90;;;;;;5055947;28;20037;-79
2021/12/10 02:08:59;;;;;;;14.88;6.70;;;3.00;99.90;;;;;;5060760;28;20033;-79
2021/12/10 02:11:25;;;;;;;18.00;7.65;;;3.00;99.90;;;;;;5056072;28;20049;-80
2021/12/10 02:13:51;;;;;;;16.15;6.88;;;3.00;99.90;;;;;;5056198;28;20033;-80
2021/12/10 02:16:17;;;;;;;14.77;6.43;;;3.00;99.90;;;;;;5056056;28;20123;-81
2021/12/10 02:18:43;;;;;;;18.27;6.93;;;2.90;99.90;;;;;;5055529;28;20043;-80
2021/12/10 02:21:09;;;;;;;7.55;5.70;;;2.90;99.90;;;;;;5055752;28;20600;-79
2021/12/10 02:23:38;;;;;;;11.05;5.78;;;3.00;99.90;;;;;;5055691;28;20063;-79
2021/12/10 02:26:10;;;;;;;10.10;5.80;;;2.90;99.90;;;;;;5055938;28;20053;-79
2021/12/10 02:28:37;;;;;;;17.33;6.18;;;3.00;99.90;;;;;;5056228;28;20029;-79
2021/12/10 02:31:07;;;;;;;15.27;6.25;;;3.00;99.90;;;;;;5055885;28;20040;-79
2021/12/10 02:33:33;;;;;;;7.93;5.10;;;3.00;99.90;;;;;;5054874;28;20043;-81
2021/12/10 02:35:58;;;;;;;7.68;4.90;;;3.00;99.90;;;;;;5055108;28;20025;-81
2021/12/10 02:38:24;;;;;;;13.27;5.80;;;3.00;99.90;;;;;;5067819;28;20005;-80
2021/12/10 02:40:51;;;;;;;17.02;5.00;;;3.10;99.90;;;;;;5064776;28;20083;-80
2021/12/10 02:43:22;;;;;;;8.82;4.55;;;3.20;99.90;;;;;;5056508;28;20078;-81
2021/12/10 02:45:51;;;;;;;11.98;5.32;;;3.10;99.90;;;;;;5056033;28;20167;-80
2021/12/10 02:48:17;;;;;;;15.02;5.43;;;3.20;99.90;;;;;;5064322;28;20037;-80
2021/12/10 02:50:44;;;;;;;10.13;4.90;;;3.20;99.90;;;;;;5065277;28;20049;-79
2021/12/10 02:53:11;;;;;;;9.73;5.15;;;3.20;99.90;;;;;;5068911;28;20045;-79
2021/12/10 02:55:37;;;;;;;9.50;4.57;;;3.50;99.90;;;;;;5066053;28;20025;-79
2021/12/10 02:58:09;;;;;;;9.70;4.70;;;3.20;99.90;;;;;;5055806;28;20021;-79
2021/12/10 03:00:50;;;;;;;14.05;4.60;;;3.20;99.90;;;;;;5055734;28;20025;-80
2021/12/10 03:03:16;;;;;;;11.90;4.05;;;3.30;99.90;;;;;;5054042;28;20041;-80
2021/12/10 03:05:42;;;;;;;13.77;4.43;;;3.30;99.90;;;;;;5055739;28;20028;-80
2021/12/10 03:08:08;;;;;;;10.50;4.13;;;3.30;99.90;;;;;;5056000;28;20078;-79
2021/12/10 03:10:34;;;;;;;11.73;4.30;;;3.30;99.90;;;;;;5054539;28;20126;-81
2021/12/10 03:13:00;;;;;;;9.18;4.07;;;3.40;99.90;;;;;;5055420;28;20059;-80
2021/12/10 03:15:29;;;;;;;8.90;4.22;;;3.40;99.90;;;;;;5055293;28;20107;-80
2021/12/10 03:17:56;;;;;;;9.57;4.22;;;3.40;99.90;;;;;;5055588;28;20053;-80
2021/12/10 03:20:25;;;;;;;9.80;3.60;;;3.40;99.90;;;;;;5055511;28;20017;-81
2021/12/10 03:22:51;;;;;;;13.93;4.03;;;3.40;99.90;;;;;;5054435;28;20025;-80
2021/12/10 03:25:18;;;;;;;29.45;6.03;;;3.40;99.90;;;;;;5055160;28;20405;-80
2021/12/10 03:27:44;;;;;;;9.13;3.85;;;3.50;99.90;;;;;;5055133;28;20046;-81
2021/12/10 03:30:15;;;;;;;11.50;4.55;;;3.50;99.90;;;;;;5054867;28;20038;-81
2021/12/10 03:32:41;;;;;;;12.20;4.10;;;3.50;99.90;;;;;;5054918;28;20354;-81
2021/12/10 03:35:22;;;;;;;6.90;3.60;;;3.60;99.90;;;;;;5054393;28;20062;-80
2021/12/10 03:37:47;;;;;;;;;;;3.50;99.90;;;;;;5054109;28;20039;-79
2021/12/10 03:40:17;;;;;;;8.85;3.75;;;3.60;99.90;;;;;;5053835;28;19905;-80
2021/12/10 03:42:43;;;;;;;10.07;3.58;;;3.60;99.90;;;;;;5054912;28;20333;-80
2021/12/10 03:45:12;;;;;;;12.82;3.78;;;3.60;99.90;;;;;;5053839;28;20366;-80
2021/12/10 03:47:39;;;;;;;6.20;3.40;;;3.60;99.90;;;;;;5055468;28;20437;-78
2021/12/10 03:50:06;;;;;;;6.25;3.00;;;3.70;99.90;;;;;;5055339;28;20021;-79
2021/12/10 03:52:32;;;;;;;10.02;3.58;;;3.70;99.90;;;;;;5053431;28;20029;-79
2021/12/10 03:54:59;;;;;;;11.43;4.07;;;3.60;99.90;;;;;;5054158;28;20043;-80
2021/12/10 03:57:25;;;;;;;8.88;2.85;;;3.60;99.90;;;;;;5053804;28;20492;-79
2021/12/10 03:59:51;;;;;;;9.98;3.72;;;3.60;99.90;;;;;;5055002;28;20044;-79
2021/12/10 04:02:17;;;;;;;11.25;3.05;;;3.60;99.90;;;;;;5054761;28;20088;-79
2021/12/10 04:04:46;;;;;;;8.18;3.42;;;3.70;99.90;;;;;;5052965;28;20024;-79
2021/12/10 04:07:19;;;;;;;4.93;2.53;;;3.70;99.90;;;;;;5053736;28;20021;-79
2021/12/10 04:09:48;;;;;;;4.95;2.50;;;3.60;99.90;;;;;;5054392;28;20028;-79
2021/12/10 04:12:14;;;;;;;8.73;2.80;;;3.70;99.90;;;;;;5056077;28;20048;-79
2021/12/10 04:14:40;;;;;;;6.15;2.97;;;3.70;99.90;;;;;;5055617;28;20029;-78
2021/12/10 04:17:07;;;;;;;4.97;2.75;;;3.70;99.90;;;;;;5053898;28;20021;-79
2021/12/10 04:19:35;;;;;;;9.27;3.45;;;3.70;99.90;;;;;;5052078;28;20025;-80
2021/12/10 04:22:06;;;;;;;14.55;4.13;;;3.70;99.90;;;;;;5057456;28;20075;-80
2021/12/10 04:24:34;;;;;;;5.07;2.95;;;3.70;99.90;;;;;;5053593;28;20021;-78
2021/12/10 04:27:01;;;;;;;12.30;3.15;;;3.70;99.90;;;;;;5053342;28;20025;-79
2021/12/10 04:29:27;;;;;;;9.48;2.72;;;3.70;99.90;;;;;;5053425;28;20417;-80
2021/12/10 04:31:55;;;;;;;5.88;2.50;;;3.70;99.90;;;;;;5053004;28;20024;-80
2021/12/10 04:34:21;;;;;;;9.18;3.20;;;3.70;99.90;;;;;;5051844;28;20132;-79
2021/12/10 04:36:48;;;;;;;8.45;3.00;;;3.60;99.90;;;;;;5052638;28;20031;-79
2021/12/10 04:39:14;;;;;;;7.03;2.30;;;3.70;99.90;;;;;;5063262;28;20024;-80
2021/12/10 04:41:39;;;;;;;8.77;2.25;;;3.70;99.90;;;;;;5062997;28;20495;-80
2021/12/10 04:44:05;;;;;;;7.40;2.17;;;3.80;99.90;;;;;;5053863;28;20028;-80
2021/12/10 04:46:32;;;;;;;9.18;2.45;;;3.70;99.90;;;;;;5053575;28;20036;-79
2021/12/10 04:49:01;;;;;;;5.75;1.75;;;3.80;99.90;;;;;;5060263;28;20041;-80
2021/12/10 04:51:35;;;;;;;6.57;2.40;;;3.80;99.90;;;;;;5063472;28;20469;-79
2021/12/10 04:54:03;;;;;;;8.63;2.13;;;3.80;99.90;;;;;;5064602;28;20033;-80
2021/12/10 04:56:29;;;;;;;13.10;2.33;;;3.80;99.90;;;;;;5062112;28;20079;-79
2021/12/10 04:58:55;;;;;;;8.52;1.92;;;3.80;99.90;;;;;;5053612;28;20112;-80
2021/12/10 05:01:21;;;;;;;7.95;2.33;;;3.80;99.90;;;;;;5053713;28;20025;-79
2021/12/10 05:03:47;;;;;;;8.48;2.00;;;3.80;99.90;;;;;;5054662;28;20025;-80
2021/12/10 05:06:12;;;;;;;10.82;3.35;;;3.80;99.90;;;;;;5052830;28;20131;-79
2021/12/10 05:08:40;;;;;;;2.65;1.70;;;3.80;99.90;;;;;;5052062;28;20119;-80
2021/12/10 05:11:08;;;;;;;4.75;1.58;;;3.80;99.90;;;;;;5053475;28;20057;-80
2021/12/10 05:13:36;;;;;;;5.85;2.00;;;3.80;99.90;;;;;;5052733;28;20380;-80
2021/12/10 05:16:03;;;;;;;7.60;2.20;;;3.80;99.90;;;;;;5052696;28;20075;-79
2021/12/10 05:18:35;;;;;;;5.90;2.10;;;3.80;99.90;;;;;;5053294;28;20037;-79
2021/12/10 05:21:03;;;;;;;9.55;1.58;;;3.80;99.90;;;;;;5053234;28;20029;-80
2021/12/10 05:23:29;;;;;;;4.85;2.30;;;3.90;99.90;;;;;;5051992;28;20481;-81
2021/12/10 05:25:55;;;;;;;7.15;1.83;;;3.90;99.90;;;;;;5054542;28;20079;-79
2021/12/10 05:28:20;;;;;;;8.30;1.90;;;3.90;99.90;;;;;;5056539;28;20457;-78
2021/12/10 05:30:54;;;;;;;5.65;2.10;;;3.90;99.90;;;;;;5057044;28;20380;-80
2021/12/10 05:33:20;;;;;;;11.68;2.50;;;3.90;99.90;;;;;;5057369;28;20082;-79
2021/12/10 05:35:47;;;;;;;14.82;2.17;;;3.90;99.90;;;;;;5057841;28;20025;-80
2021/12/10 05:38:14;;;;;;;6.60;2.38;;;4.00;99.90;;;;;;5054643;28;20033;-78
2021/12/10 05:40:40;;;;;;;6.15;2.60;;;3.90;99.90;;;;;;5055397;28;20055;-79
2021/12/10 05:43:06;;;;;;;8.57;2.13;;;3.90;99.90;;;;;;5055429;28;20044;-81
2021/12/10 05:45:32;;;;;;;8.98;2.15;;;3.90;99.90;;;;;;5055729;28;20366;-80
2021/12/10 05:47:58;;;;;;;9.15;2.08;;;3.90;99.90;;;;;;5056347;28;20130;-80
2021/12/10 05:50:25;;;;;;;7.60;1.85;;;3.90;99.90;;;;;;5055839;28;20136;-81
2021/12/10 05:52:51;;;;;;;8.65;1.83;;;4.00;99.90;;;;;;5056485;28;20060;-80
2021/12/10 05:55:18;;;;;;;9.30;2.00;;;4.00;99.90;;;;;;5056057;28;20110;-80
2021/12/10 05:57:44;;;;;;;10.02;2.25;;;4.00;99.90;;;;;;5056244;28;20029;-80
2021/12/10 06:00:14;;;;;;;8.95;1.92;;;4.00;99.90;;;;;;5056355;28;20028;-80
2021/12/10 06:02:40;;;;;;;7.47;2.00;;;4.00;99.90;;;;;;5055520;28;20032;-81
2021/12/10 06:05:08;;;;;;;9.60;2.05;;;4.00;99.90;;;;;;5055452;28;20381;-80
2021/12/10 06:07:33;;;;;;;4.63;1.80;;;4.10;99.90;;;;;;5055811;28;20477;-80
2021/12/10 06:09:59;;;;;;;14.02;1.98;;;4.10;99.90;;;;;;5046554;28;20083;-78
2021/12/10 06:12:24;;;;;;;9.40;1.77;;;4.10;99.90;;;;;;5035169;28;20053;-78
2021/12/10 06:14:53;;;;;;;7.13;1.80;;;4.10;99.90;;;;;;5037935;28;20044;-79
2021/12/10 06:17:18;;;;;;;5.28;2.38;;;4.00;99.90;;;;;;5037050;28;20584;-81
2021/12/10 06:19:44;;;;;;;5.85;2.00;;;4.00;99.90;;;;;;5036962;28;20033;-79
2021/12/10 06:22:10;;;;;;;5.05;2.13;;;4.00;99.90;;;;;;5034561;28;20377;-78
2021/12/10 06:24:36;;;;;;;6.82;2.20;;;4.00;99.90;;;;;;5037330;28;20021;-79
2021/12/10 06:27:02;;;;;;;4.68;2.70;;;3.90;99.90;;;;;;5039740;28;20139;-78
2021/12/10 06:29:28;;;;;;;9.27;2.70;;;3.90;99.90;;;;;;5038627;28;20041;-78
2021/12/10 06:31:54;;;;;;;8.45;2.47;;;3.90;99.90;;;;;;5038336;28;20036;-80
2021/12/10 06:34:20;;;;;;;12.05;2.92;;;4.00;99.90;;;;;;5033370;28;20033;-79
2021/12/10 06:36:48;;;;;;;4.68;2.13;;;3.90;99.90;;;;;;5040134;28;20037;-79
2021/12/10 06:39:20;;;;;;;6.45;2.67;;;3.90;99.90;;;;;;5037344;28;20033;-79
2021/12/10 06:41:54;;;;;;;8.52;2.33;;;3.90;99.90;;;;;;5055363;28;20017;-79
2021/12/10 06:44:22;;;;;;;10.75;2.63;;;3.90;99.90;;;;;;5033994;28;20035;-80
2021/12/10 06:46:49;;;;;;;5.20;1.90;;;3.90;99.90;;;;;;5042200;28;20083;-78
2021/12/10 06:49:16;;;;;;;14.38;2.72;;;3.90;99.90;;;;;;5039677;28;20045;-80
2021/12/10 06:51:42;;;;;;;8.85;2.83;;;3.90;99.90;;;;;;5049288;28;20025;-79
2021/12/10 06:54:08;;;;;;;13.93;2.63;;;3.90;99.90;;;;;;5038333;28;20036;-78
2021/12/10 06:56:36;;;;;;;8.48;2.45;;;3.90;99.90;;;;;;5047122;28;20108;-79
2021/12/10 06:59:07;;;;;;;10.60;2.45;;;3.90;99.90;;;;;;5040436;28;20025;-80
2021/12/10 07:01:38;;;;;;;7.22;2.33;;;3.90;99.90;;;;;;5053664;28;20067;-79
2021/12/10 07:04:09;;;;;;;6.93;2.00;;;3.90;99.90;;;;;;5053046;28;20025;-80
2021/12/10 07:06:36;;;;;;;4.88;1.90;;;4.00;99.90;;;;;;5054444;28;20021;-79
2021/12/10 07:09:07;;;;;;;6.78;2.10;;;3.90;99.90;;;;;;5053909;28;20093;-78
2021/12/10 07:11:34;;;;;;;7.60;2.20;;;3.90;99.90;;;;;;5051394;28;20057;-80
2021/12/10 07:14:00;;;;;;;10.10;2.25;;;4.00;99.90;;;;;;5054443;28;20079;-80
2021/12/10 07:16:27;;;;;;;6.43;1.88;;;4.00;99.90;;;;;;5050192;28;20013;-80
2021/12/10 07:18:55;;;;;;;12.13;2.75;;;4.00;99.90;;;;;;5053283;28;20021;-79
2021/12/10 07:21:20;;;;;;;7.93;1.83;;;4.00;99.90;;;;;;5051015;28;20074;-80
2021/12/10 07:23:49;;;;;;;8.80;1.70;;;4.10;99.90;;;;;;5053533;28;20017;-80
2021/12/10 07:26:16;;;;;;;5.65;1.75;;;4.10;99.90;;;;;;5051171;28;20024;-79
2021/12/10 07:28:41;;;;;;;3.38;2.25;;;4.00;99.90;;;;;;5053625;28;20029;-79
2021/12/10 07:31:08;;;;;;;8.05;2.20;;;4.00;99.90;;;;;;5053749;28;20017;-80
2021/12/10 07:33:35;;;;;;;7.40;1.95;;;4.00;99.90;;;;;;5050444;28;20033;-79
2021/12/10 07:36:01;;;;;;;4.47;2.38;;;4.00;99.90;;;;;;5049609;28;20028;-80
2021/12/10 07:38:27;;;;;;;6.28;1.90;;;4.10;99.90;;;;;;5050360;28;20566;-79
2021/12/10 07:40:52;;;;;;;5.82;1.83;;;4.00;99.90;;;;;;5053593;28;20025;-80
2021/12/10 07:43:19;;;;;;;4.35;1.77;;;4.00;99.90;;;;;;5044706;28;20032;-78
2021/12/10 07:45:48;;;;;;;7.78;2.92;;;4.10;99.90;;;;;;5051667;28;20021;-78
2021/12/10 07:48:18;;;;;;;6.93;2.38;;;4.00;99.90;;;;;;5050715;28;20392;-79
2021/12/10 07:50:52;;;;;;;10.53;2.93;;;4.00;99.90;;;;;;5053594;28;20066;-81
2021/12/10 07:53:19;;;;;;;9.30;1.95;;;4.10;99.90;;;;;;5048801;28;20340;-76
2021/12/10 07:55:45;;;;;;;6.32;1.67;;;3.20;99.90;;;;;;5051113;28;20362;-74
2021/12/10 07:58:11;;;;;;;9.40;2.53;;;4.10;99.90;;;;;;5050702;28;20107;-75
2021/12/10 08:00:40;;;;;;;6.75;2.00;;;4.10;99.90;;;;;;5052666;28;20100;-75
2021/12/10 08:03:06;;;;;;;6.18;2.30;;;4.20;99.90;;;;;;5052863;28;20053;-75
2021/12/10 08:05:32;;;;;;;12.05;2.50;;;4.30;99.90;;;;;;5046869;28;20029;-76
2021/12/10 08:07:58;;;;;;;5.95;1.75;;;4.20;99.90;;;;;;5049982;28;20031;-76
2021/12/10 08:10:25;;;;;;;3.45;1.75;;;4.20;99.90;;;;;;5051861;28;20040;-77
2021/12/10 08:12:51;;;;;;;4.25;1.63;;;4.30;99.90;;;;;;5051870;28;20488;-76
2021/12/10 08:15:17;;;;;;;3.97;1.60;;;4.30;99.90;;;;;;5052795;28;20035;-75
2021/12/10 08:17:44;;;;;;;8.60;2.10;;;4.30;99.90;;;;;;5053154;28;20021;-76
2021/12/10 08:20:14;;;;;;;4.72;1.85;;;4.40;99.90;;;;;;5052886;28;20485;-76
2021/12/10 08:22:41;;;;;;;20.77;3.80;;;4.40;99.90;;;;;;5039483;28;20041;-75
2021/12/10 08:25:08;;;;;;;7.55;1.77;;;4.40;99.90;;;;;;5033772;28;20579;-76
2021/12/10 08:27:36;;;;;;;4.95;1.23;;;4.50;99.90;;;;;;5032378;28;20462;-74
2021/12/10 08:30:03;;;;;;;5.93;2.13;;;4.50;99.90;;;;;;5042647;28;20036;-77
2021/12/10 08:32:31;;;;;;;11.43;1.73;;;4.50;99.90;;;;;;5048118;28;20100;-76
2021/12/10 08:34:57;;;;;;;3.20;1.90;;;4.50;99.90;;;;;;5053816;28;20033;-76
2021/12/10 08:37:23;;;;;;;7.38;1.80;;;4.50;99.90;;;;;;5055811;28;20036;-76
2021/12/10 08:39:50;;;;;;;10.02;2.72;;;4.40;99.90;;;;;;5055444;28;20393;-76
2021/12/10 08:42:16;;;;;;;11.57;2.55;;;4.50;99.90;;;;;;5042760;28;20068;-76
2021/12/10 08:44:43;;;;;;;6.63;2.28;;;4.40;99.90;;;;;;5035701;28;20017;-76
2021/12/10 08:47:12;;;;;;;8.52;2.40;;;4.40;99.90;;;;;;5032785;28;20033;-76
2021/12/10 08:49:39;;;;;;;10.93;3.22;;;4.50;99.90;;;;;;5034311;28;20044;-76
2021/12/10 08:52:07;;;;;;;11.48;2.38;;;4.50;99.90;;;;;;5034760;28;20104;-77
2021/12/10 08:54:34;;;;;;;4.82;1.88;;;4.50;99.90;;;;;;5032459;28;20021;-76
2021/12/10 08:57:00;;;;;;;7.72;2.15;;;4.50;99.90;;;;;;5039261;28;20359;-79
2021/12/10 08:59:26;;;;;;;9.18;2.38;;;4.50;99.90;;;;;;5035642;28;20479;-78
2021/12/10 09:01:56;;;;;;;11.07;1.85;;;4.50;99.90;;;;;;5055170;28;20043;-78
2021/12/10 09:04:22;;;;;;;7.95;2.00;;;4.50;99.90;;;;;;5054366;28;20033;-76
2021/12/10 09:06:51;;;;;;;6.75;2.50;;;4.50;99.90;;;;;;5055382;28;20107;-76
2021/12/10 09:09:19;;;;;;;6.05;1.98;;;4.50;99.90;;;;;;5054003;28;20040;-76
2021/12/10 09:11:48;;;;;;;5.07;1.77;;;4.50;99.90;;;;;;5055436;28;20052;-77
2021/12/10 09:14:15;;;;;;;7.80;2.58;;;4.60;99.90;;;;;;5051259;28;20497;-77
2021/12/10 09:16:43;;;;;;;7.68;2.80;;;4.60;99.90;;;;;;5054941;28;20036;-77
2021/12/10 09:19:13;;;;;;;6.07;2.42;;;4.50;99.90;;;;;;5054643;28;20107;-76
2021/12/10 09:21:41;;;;;;;9.30;3.10;;;4.50;99.90;;;;;;5051103;28;20485;-78
2021/12/10 09:24:08;;;;;;;13.18;4.80;;;4.60;99.90;;;;;;5054891;28;20033;-77
2021/12/10 09:26:38;;;;;;;5.40;2.35;;;4.60;99.90;;;;;;5053546;28;20037;-77
2021/12/10 09:29:07;;;;;;;11.70;3.10;;;4.50;99.90;;;;;;5054224;28;20063;-75
2021/12/10 09:31:36;;;;;;;17.73;3.47;;;4.50;99.90;;;;;;5054440;28;20112;-77
2021/12/10 09:34:03;;;;;;;10.73;2.65;;;4.50;99.90;;;;;;5056807;28;20040;-84
2021/12/10 09:36:29;;;;;;;11.57;2.60;;;4.40;99.90;;;;;;5055641;28;20025;-76
2021/12/10 09:38:55;;;;;;;3.17;1.98;;;4.50;99.90;;;;;;5056828;28;20037;-77
2021/12/10 09:41:22;;;;;;;3.85;2.30;;;4.50;99.90;;;;;;5050580;28;20021;-76
2021/12/10 09:43:49;;;;;;;14.15;3.22;;;4.50;99.90;;;;;;5053171;28;20619;-77
2021/12/10 09:46:15;;;;;;;7.45;2.55;;;4.50;99.90;;;;;;5053548;28;20068;-76
2021/12/10 09:48:42;;;;;;;8.73;2.97;;;4.60;99.90;;;;;;5053263;28;20115;-76
2021/12/10 09:51:17;;;;;;;12.85;2.80;;;4.50;99.90;;;;;;5054577;28;20479;-77
2021/12/10 09:53:48;;;;;;;9.30;3.38;;;4.60;99.90;;;;;;5052065;28;20037;-77
2021/12/10 09:56:15;;;;;;;10.35;5.20;;;4.60;99.90;;;;;;5054471;28;20083;-77
2021/12/10 09:58:41;;;;;;;16.35;2.97;;;4.70;99.90;;;;;;5054855;28;20035;-77
2021/12/10 10:01:12;;;;;;;16.85;3.42;;;4.60;99.90;;;;;;5053522;28;20219;-77
2021/12/10 10:03:39;;;;;;;;;;;4.60;99.90;;;;;;5052784;28;20017;-76
2021/12/10 10:06:06;;;;;;;13.65;3.03;;;4.60;99.90;;;;;;5052413;28;20284;-76
2021/12/10 10:08:32;;;;;;;5.88;3.20;;;4.60;99.90;;;;;;5052237;28;20025;-73
2021/12/10 10:11:09;;;;;;;7.97;3.00;;;4.60;99.90;;;;;;5052795;28;20052;-77
2021/12/10 10:13:38;;;;;;;9.63;3.20;;;4.70;99.90;;;;;;5053286;28;20037;-77
2021/12/10 10:16:05;;;;;;;7.68;2.67;;;4.70;99.90;;;;;;5054212;28;20032;-78
2021/12/10 10:18:33;;;;;;;6.07;2.85;;;4.80;99.90;;;;;;5054537;28;20147;-79
2021/12/10 10:21:07;;;;;;;5.93;2.95;;;4.80;99.90;;;;;;5055624;28;20029;-79
2021/12/10 10:23:34;;;;;;;9.75;3.53;;;4.80;99.90;;;;;;5054048;28;20558;-77
2021/12/10 10:26:06;;;;;;;8.27;3.25;;;4.80;99.90;;;;;;5053941;28;20025;-79
2021/12/10 10:28:32;;;;;;;10.98;3.97;;;4.80;99.90;;;;;;5053463;28;20072;-78
2021/12/10 10:31:04;;;;;;;10.63;3.33;;;4.80;99.90;;;;;;5053416;28;20550;-78
2021/12/10 10:33:33;;;;;;;8.75;3.45;;;4.90;99.90;;;;;;5054992;28;20035;-77
2021/12/10 10:36:02;;;;;;;12.48;4.28;;;4.90;99.90;;;;;;5058823;28;20083;-77
2021/12/10 10:38:28;;;;;;;13.90;4.43;;;5.00;99.90;;;;;;5058148;28;20033;-77
2021/12/10 10:40:59;;;;;;;5.70;4.13;;;5.00;99.90;;;;;;5053218;28;20028;-79
2021/12/10 10:43:28;;;;;;;7.78;4.28;;;5.10;99.90;;;;;;5053157;28;20398;-80
2021/12/10 10:45:57;;;;;;;11.27;4.88;;;5.10;99.90;;;;;;5052814;28;20029;-79
2021/12/10 10:48:24;;;;;;;9.65;3.90;;;5.20;99.90;;;;;;5054900;28;20048;-78
2021/12/10 10:50:58;;;;;;;7.28;4.45;;;5.10;99.90;;;;;;5052877;28;20021;-78
2021/12/10 10:53:28;;;;;;;9.88;4.10;;;5.20;99.90;;;;;;5052455;28;20029;-78
2021/12/10 10:56:16;;;;;;;12.93;6.95;;;5.20;99.90;;;;;;5053861;28;20021;-78
2021/12/10 10:58:55;;;;;;;12.82;4.80;;;5.20;99.90;;;;;;5053459;28;20029;-77
2021/12/10 11:01:32;;;;;;;7.70;4.75;;;5.20;99.90;;;;;;5052445;28;20033;-77
2021/12/10 11:04:30;;;;;;;9.15;4.88;;;5.30;99.90;;;;;;5053860;28;20035;-79
2021/12/10 11:07:06;;;;;;;16.92;6.45;;;5.30;99.90;;;;;;5051273;28;20065;-78
2021/12/10 11:09:35;;;;;;;8.18;4.70;;;5.30;99.90;;;;;;5050997;28;20128;-78
2021/12/10 11:12:08;;;;;;;19.80;5.60;;;5.30;99.90;;;;;;5052272;28;20045;-80
2021/12/10 11:14:42;;;;;;;10.13;5.30;;;5.40;99.90;;;;;;5051944;28;20032;-79
2021/12/10 11:17:17;;;;;;;11.70;4.97;;;5.40;99.90;;;;;;5052929;28;20059;-78
2021/12/10 11:20:25;;;;;;;8.48;5.05;;;5.40;99.90;;;;;;5053644;28;20025;-78
2021/12/10 11:22:58;;;;;;;10.00;4.82;;;5.30;99.90;;;;;;5050394;28;20310;-79
2021/12/10 11:25:35;;;;;;;17.13;5.15;;;5.40;99.90;;;;;;5051056;28;20387;-77
2021/12/10 11:28:04;;;;;;;7.32;4.95;;;5.30;99.90;;;;;;5052686;28;20040;-78
2021/12/10 11:30:30;;;;;;;10.98;5.25;;;5.30;99.90;;;;;;5051771;28;20025;-79
2021/12/10 11:33:14;;;;;;;11.38;4.15;;;5.30;99.90;;;;;;5052904;28;20032;-77
2021/12/10 11:35:44;;;;;;;13.07;4.93;;;5.30;99.90;;;;;;5051893;28;20032;-79
2021/12/10 11:38:17;;;;;;;17.67;5.60;;;5.40;99.90;;;;;;5052915;28;21524;-77
2021/12/10 11:40:49;;;;;;;9.43;4.13;;;5.40;99.90;;;;;;5052845;28;20477;-78
2021/12/10 11:46:29;;;;;;;7.57;4.33;;;5.50;99.90;;;;;;5104527;27;1200389;-78
2021/12/10 11:49:05;;;;;;;10.90;4.35;;;5.50;99.90;;;;;;5111749;28;20035;-77
2021/12/10 11:51:39;;;;;;;11.93;5.22;;;5.50;99.90;;;;;;5119426;27;20418;-78
2021/12/10 11:54:19;;;;;;;8.80;4.10;;;5.50;99.90;;;;;;5112259;28;20066;-79
2021/12/10 11:56:54;;;;;;;6.93;3.90;;;5.60;99.90;;;;;;5122966;28;20020;-79
2021/12/10 11:59:22;;;;;;;10.77;4.22;;;5.60;99.90;;;;;;5114250;28;20026;-79
2021/12/10 12:01:56;;;;;;;5.53;3.55;;;5.60;99.90;;;;;;5115770;28;20104;-77
2021/12/10 12:04:47;;;;;;;12.68;4.03;;;5.60;99.90;;;;;;5110437;28;20043;-78
2021/12/10 12:07:41;;;;;;;6.57;3.67;;;5.60;99.90;;;;;;5104133;28;20028;-78
2021/12/10 12:10:28;;;;;;;7.10;3.33;;;5.60;99.90;;;;;;5106821;28;20383;-77
2021/12/10 12:13:21;;;;;;;17.75;4.85;;;5.60;99.90;;;;;;5116795;28;20023;-78
2021/12/10 12:15:49;;;;;;;6.53;4.03;;;5.70;99.90;;;;;;5115665;28;20053;-76
2021/12/10 12:18:25;;;;;;;12.82;4.47;;;5.80;99.90;;;;;;5116425;28;20043;-79
2021/12/10 12:21:37;;;;;;;8.13;3.42;;;5.70;99.90;;;;;;5110276;28;20103;-77
2021/12/10 12:26:35;;;;;;;15.52;3.80;;;5.70;99.90;;;;;;5110761;28;20046;-78
2021/12/10 12:29:09;;;;;;;11.77;4.07;;;5.70;99.90;;;;;;5111276;28;20463;-80
2021/12/10 12:31:37;;;;;;;8.27;3.78;;;5.60;99.90;;;;;;5108985;28;20024;-77
2021/12/10 12:34:08;;;;;;;7.47;3.80;;;5.70;99.90;;;;;;5090632;28;20499;-78
2021/12/10 12:36:52;;;;;;;11.00;3.60;;;5.70;99.90;;;;;;5089869;28;20111;-77
2021/12/10 12:39:46;;;;;;;14.40;4.97;;;5.70;99.90;;;;;;5086772;28;20460;-76
2021/12/10 12:42:27;;;;;;;7.57;3.97;;;5.70;99.90;;;;;;5088483;28;20096;-77
2021/12/10 12:45:06;;;;;;;13.18;3.90;;;6.50;99.90;;;;;;5088314;28;20090;-78
2021/12/10 12:47:36;;;;;;;10.70;3.08;;;5.60;99.90;;;;;;5088274;28;20118;-77
2021/12/10 12:50:08;;;;;;;9.70;3.55;;;5.60;99.90;;;;;;5089050;28;20033;-77
2021/12/10 12:52:41;;;;;;;12.02;3.58;;;5.50;99.90;;;;;;5088933;28;20044;-77
2021/12/10 12:55:22;;;;;;;7.63;3.92;;;5.50;99.90;;;;;;5088932;28;20384;-77
2021/12/10 12:57:50;;;;;;;10.07;4.18;;;5.50;99.90;;;;;;5075551;28;20020;-77
2021/12/10 13:00:41;;;;;;;7.43;4.00;;;5.50;99.90;;;;;;5074842;28;20086;-77
2021/12/10 13:03:24;;;;;;;;;;;5.50;99.90;;;;;;5077496;28;20056;-78
2021/12/10 13:06:00;;;;;;;6.15;4.93;;;5.50;99.90;;;;;;5075560;28;19935;-77
2021/12/10 13:08:32;;;;;;;9.30;3.70;;;5.50;99.90;;;;;;5075144;28;20020;-76
2021/12/10 13:11:10;;;;;;;7.68;3.42;;;5.50;99.90;;;;;;5075818;28;20033;-76
2021/12/10 13:13:45;;;;;;;11.93;3.95;;;5.50;99.90;;;;;;5077008;28;20021;-77
2021/12/10 13:16:13;;;;;;;6.57;3.70;;;5.40;99.90;;;;;;5076189;28;20123;-76
2021/12/10 13:18:42;;;;;;;8.95;4.38;;;5.50;99.90;;;;;;5076385;28;20024;-76
2021/12/10 13:21:11;;;;;;;10.50;3.92;;;5.50;99.90;;;;;;5075400;28;20040;-76